sensor_id;sensor_type;location;lat;lon;timestamp;P1;durP1;ratioP1;P2;durP2;ratioP2
64738;SDS011;51175;51.186;0.276;2023-11-21T00:00:31;8.63;;;5.65;;
64738;SDS011;51175;51.186;0.276;2023-11-21T00:01:01;7.15;;;5.95;;
64738;SDS011;51175;51.186;0.276;2023-11-21T00:01:34;9.07;;;6.25;;
64738;SDS011;51175;51.186;0.276;2023-11-21T00:02:04;10.93;;;6.57;;
64738;SDS011;51175;51.186;0.276;2023-11-21T00:02:35;9.65;;;5.93;;
64738;SDS011;51175;51.186;0.276;2023-11-21T00:03:05;8.35;;;6.07;;
64738;SDS011;51175;51.186;0.276;2023-11-21T00:03:37;9.70;;;6.65;;
64738;SDS011;51175;51.186;0.276;2023-11-21T00:04:07;8.07;;;5.85;;
64738;SDS011;51175;51.186;0.276;2023-11-21T00:04:38;8.60;;;6.30;;
64738;SDS011;51175;51.186;0.276;2023-11-21T00:05:08;9.82;;;5.97;;
64738;SDS011;51175;51.186;0.276;2023-11-21T00:05:40;7.15;;;5.80;;
64738;SDS011;51175;51.186;0.276;2023-11-21T00:06:11;7.72;;;5.45;;
64738;SDS011;51175;51.186;0.276;2023-11-21T00:06:42;8.45;;;5.57;;
64738;SDS011;51175;51.186;0.276;2023-11-21T00:07:12;8.40;;;5.72;;
64738;SDS011;51175;51.186;0.276;2023-11-21T00:07:43;10.23;;;6.38;;
64738;SDS011;51175;51.186;0.276;2023-11-21T00:08:13;10.25;;;6.03;;
64738;SDS011;51175;51.186;0.276;2023-11-21T00:08:44;8.35;;;6.68;;
64738;SDS011;51175;51.186;0.276;2023-11-21T00:09:14;10.20;;;6.50;;
64738;SDS011;51175;51.186;0.276;2023-11-21T00:09:45;11.90;;;7.43;;
64738;SDS011;51175;51.186;0.276;2023-11-21T00:10:16;10.05;;;6.65;;
64738;SDS011;51175;51.186;0.276;2023-11-21T00:10:46;10.57;;;6.60;;
64738;SDS011;51175;51.186;0.276;2023-11-21T00:11:17;9.88;;;6.70;;
64738;SDS011;51175;51.186;0.276;2023-11-21T00:11:48;10.18;;;6.43;;
64738;SDS011;51175;51.186;0.276;2023-11-21T00:12:18;8.45;;;6.60;;
64738;SDS011;51175;51.186;0.276;2023-11-21T00:12:50;10.68;;;6.93;;
64738;SDS011;51175;51.186;0.276;2023-11-21T00:13:21;10.20;;;6.95;;
64738;SDS011;51175;51.186;0.276;2023-11-21T00:13:51;7.70;;;6.28;;
64738;SDS011;51175;51.186;0.276;2023-11-21T00:14:22;9.80;;;7.00;;
64738;SDS011;51175;51.186;0.276;2023-11-21T00:14:52;8.20;;;6.43;;
64738;SDS011;51175;51.186;0.276;2023-11-21T00:15:23;8.57;;;7.15;;
64738;SDS011;51175;51.186;0.276;2023-11-21T00:15:53;9.10;;;6.90;;
64738;SDS011;51175;51.186;0.276;2023-11-21T00:16:24;8.45;;;6.80;;
64738;SDS011;51175;51.186;0.276;2023-11-21T00:16:55;10.00;;;6.57;;
64738;SDS011;51175;51.186;0.276;2023-11-21T00:17:25;9.70;;;6.03;;
64738;SDS011;51175;51.186;0.276;2023-11-21T00:17:56;6.80;;;6.00;;
64738;SDS011;51175;51.186;0.276;2023-11-21T00:18:27;7.72;;;6.32;;
64738;SDS011;51175;51.186;0.276;2023-11-21T00:18:57;7.25;;;5.80;;
64738;SDS011;51175;51.186;0.276;2023-11-21T00:19:28;9.05;;;6.13;;
64738;SDS011;51175;51.186;0.276;2023-11-21T00:19:58;9.20;;;5.63;;
64738;SDS011;51175;51.186;0.276;2023-11-21T00:20:29;8.07;;;5.85;;
64738;SDS011;51175;51.186;0.276;2023-11-21T00:20:59;6.53;;;5.50;;
64738;SDS011;51175;51.186;0.276;2023-11-21T00:21:29;8.93;;;6.38;;
64738;SDS011;51175;51.186;0.276;2023-11-21T00:22:00;8.50;;;6.35;;
64738;SDS011;51175;51.186;0.276;2023-11-21T00:22:30;10.18;;;5.72;;
64738;SDS011;51175;51.186;0.276;2023-11-21T00:23:02;7.57;;;6.32;;
64738;SDS011;51175;51.186;0.276;2023-11-21T00:23:32;8.63;;;5.43;;
64738;SDS011;51175;51.186;0.276;2023-11-21T00:24:03;10.07;;;6.40;;
64738;SDS011;51175;51.186;0.276;2023-11-21T00:24:34;9.52;;;6.03;;
64738;SDS011;51175;51.186;0.276;2023-11-21T00:25:05;11.35;;;6.00;;
64738;SDS011;51175;51.186;0.276;2023-11-21T00:25:36;10.27;;;6.43;;
64738;SDS011;51175;51.186;0.276;2023-11-21T00:26:07;10.15;;;6.07;;
64738;SDS011;51175;51.186;0.276;2023-11-21T00:26:37;8.18;;;5.97;;
64738;SDS011;51175;51.186;0.276;2023-11-21T00:27:08;8.98;;;5.40;;
64738;SDS011;51175;51.186;0.276;2023-11-21T00:27:38;9.68;;;6.13;;
64738;SDS011;51175;51.186;0.276;2023-11-21T00:28:08;6.88;;;6.18;;
64738;SDS011;51175;51.186;0.276;2023-11-21T00:28:39;10.68;;;6.47;;
64738;SDS011;51175;51.186;0.276;2023-11-21T00:29:10;7.45;;;6.00;;
64738;SDS011;51175;51.186;0.276;2023-11-21T00:29:41;10.70;;;5.70;;
64738;SDS011;51175;51.186;0.276;2023-11-21T00:30:11;7.40;;;5.97;;
64738;SDS011;51175;51.186;0.276;2023-11-21T00:30:42;8.15;;;5.88;;
64738;SDS011;51175;51.186;0.276;2023-11-21T00:31:13;7.65;;;6.30;;
64738;SDS011;51175;51.186;0.276;2023-11-21T00:31:44;6.95;;;5.68;;
64738;SDS011;51175;51.186;0.276;2023-11-21T00:32:14;8.07;;;5.78;;
64738;SDS011;51175;51.186;0.276;2023-11-21T00:32:45;7.95;;;5.70;;
64738;SDS011;51175;51.186;0.276;2023-11-21T00:33:15;7.75;;;5.80;;
64738;SDS011;51175;51.186;0.276;2023-11-21T00:33:46;7.28;;;5.68;;
64738;SDS011;51175;51.186;0.276;2023-11-21T00:34:17;7.68;;;6.03;;
64738;SDS011;51175;51.186;0.276;2023-11-21T00:34:47;11.65;;;6.07;;
64738;SDS011;51175;51.186;0.276;2023-11-21T00:35:18;7.55;;;5.88;;
64738;SDS011;51175;51.186;0.276;2023-11-21T00:35:48;7.93;;;5.78;;
64738;SDS011;51175;51.186;0.276;2023-11-21T00:36:19;6.45;;;5.28;;
64738;SDS011;51175;51.186;0.276;2023-11-21T00:36:49;9.90;;;5.63;;
64738;SDS011;51175;51.186;0.276;2023-11-21T00:37:20;8.77;;;6.00;;
64738;SDS011;51175;51.186;0.276;2023-11-21T00:37:50;7.88;;;5.45;;
64738;SDS011;51175;51.186;0.276;2023-11-21T00:38:20;6.93;;;5.75;;
64738;SDS011;51175;51.186;0.276;2023-11-21T00:38:51;8.65;;;6.50;;
64738;SDS011;51175;51.186;0.276;2023-11-21T00:39:21;7.95;;;5.88;;
64738;SDS011;51175;51.186;0.276;2023-11-21T00:39:52;8.35;;;5.82;;
64738;SDS011;51175;51.186;0.276;2023-11-21T00:40:22;7.68;;;6.05;;
64738;SDS011;51175;51.186;0.276;2023-11-21T00:40:53;8.07;;;6.13;;
64738;SDS011;51175;51.186;0.276;2023-11-21T00:41:26;9.20;;;6.10;;
64738;SDS011;51175;51.186;0.276;2023-11-21T00:41:57;6.32;;;5.65;;
64738;SDS011;51175;51.186;0.276;2023-11-21T00:42:28;6.57;;;5.88;;
64738;SDS011;51175;51.186;0.276;2023-11-21T00:42:58;7.50;;;5.90;;
64738;SDS011;51175;51.186;0.276;2023-11-21T00:43:29;8.05;;;7.05;;
64738;SDS011;51175;51.186;0.276;2023-11-21T00:44:00;10.43;;;6.63;;
64738;SDS011;51175;51.186;0.276;2023-11-21T00:44:30;9.32;;;7.03;;
64738;SDS011;51175;51.186;0.276;2023-11-21T00:45:01;12.27;;;7.35;;
64738;SDS011;51175;51.186;0.276;2023-11-21T00:45:33;7.13;;;6.15;;
64738;SDS011;51175;51.186;0.276;2023-11-21T00:46:04;9.00;;;6.95;;
64738;SDS011;51175;51.186;0.276;2023-11-21T00:46:37;11.90;;;6.75;;
64738;SDS011;51175;51.186;0.276;2023-11-21T00:47:08;8.40;;;5.60;;
64738;SDS011;51175;51.186;0.276;2023-11-21T00:47:38;10.98;;;6.65;;
64738;SDS011;51175;51.186;0.276;2023-11-21T00:48:09;8.40;;;6.95;;
64738;SDS011;51175;51.186;0.276;2023-11-21T00:48:39;10.05;;;6.32;;
64738;SDS011;51175;51.186;0.276;2023-11-21T00:49:09;10.20;;;7.40;;
64738;SDS011;51175;51.186;0.276;2023-11-21T00:49:41;10.73;;;7.53;;
64738;SDS011;51175;51.186;0.276;2023-11-21T00:50:12;12.48;;;6.85;;
64738;SDS011;51175;51.186;0.276;2023-11-21T00:50:42;9.68;;;7.28;;
64738;SDS011;51175;51.186;0.276;2023-11-21T00:51:13;9.68;;;7.05;;
64738;SDS011;51175;51.186;0.276;2023-11-21T00:51:43;9.95;;;6.57;;
64738;SDS011;51175;51.186;0.276;2023-11-21T00:52:14;6.82;;;6.13;;
64738;SDS011;51175;51.186;0.276;2023-11-21T00:52:44;10.02;;;6.00;;
64738;SDS011;51175;51.186;0.276;2023-11-21T00:53:15;10.55;;;6.10;;
64738;SDS011;51175;51.186;0.276;2023-11-21T00:53:46;8.82;;;5.80;;
64738;SDS011;51175;51.186;0.276;2023-11-21T00:54:17;9.45;;;5.82;;
64738;SDS011;51175;51.186;0.276;2023-11-21T00:54:48;6.32;;;5.57;;
64738;SDS011;51175;51.186;0.276;2023-11-21T00:55:19;10.05;;;6.03;;
64738;SDS011;51175;51.186;0.276;2023-11-21T00:55:51;7.35;;;5.57;;
64738;SDS011;51175;51.186;0.276;2023-11-21T00:56:27;7.35;;;6.07;;
64738;SDS011;51175;51.186;0.276;2023-11-21T00:56:57;9.30;;;5.93;;
64738;SDS011;51175;51.186;0.276;2023-11-21T00:57:28;6.93;;;5.85;;
64738;SDS011;51175;51.186;0.276;2023-11-21T00:57:59;6.85;;;6.05;;
64738;SDS011;51175;51.186;0.276;2023-11-21T00:58:29;8.20;;;5.72;;
64738;SDS011;51175;51.186;0.276;2023-11-21T00:59:00;8.63;;;6.32;;
64738;SDS011;51175;51.186;0.276;2023-11-21T00:59:31;8.90;;;5.93;;
64738;SDS011;51175;51.186;0.276;2023-11-21T01:00:01;8.43;;;5.88;;
64738;SDS011;51175;51.186;0.276;2023-11-21T01:00:37;9.73;;;5.85;;
64738;SDS011;51175;51.186;0.276;2023-11-21T01:01:09;8.88;;;6.53;;
64738;SDS011;51175;51.186;0.276;2023-11-21T01:01:40;8.57;;;6.47;;
64738;SDS011;51175;51.186;0.276;2023-11-21T01:02:10;11.20;;;5.63;;
64738;SDS011;51175;51.186;0.276;2023-11-21T01:02:41;8.85;;;5.97;;
64738;SDS011;51175;51.186;0.276;2023-11-21T01:03:13;8.65;;;5.80;;
64738;SDS011;51175;51.186;0.276;2023-11-21T01:03:44;8.38;;;5.82;;
64738;SDS011;51175;51.186;0.276;2023-11-21T01:04:16;7.90;;;6.30;;
64738;SDS011;51175;51.186;0.276;2023-11-21T01:04:47;13.35;;;6.43;;
64738;SDS011;51175;51.186;0.276;2023-11-21T01:05:18;10.02;;;6.25;;
64738;SDS011;51175;51.186;0.276;2023-11-21T01:05:49;11.15;;;6.00;;
64738;SDS011;51175;51.186;0.276;2023-11-21T01:06:20;6.30;;;5.70;;
64738;SDS011;51175;51.186;0.276;2023-11-21T01:06:51;8.90;;;6.00;;
64738;SDS011;51175;51.186;0.276;2023-11-21T01:07:21;10.13;;;5.50;;
64738;SDS011;51175;51.186;0.276;2023-11-21T01:07:52;9.27;;;6.25;;
64738;SDS011;51175;51.186;0.276;2023-11-21T01:08:23;8.13;;;6.00;;
64738;SDS011;51175;51.186;0.276;2023-11-21T01:08:54;9.18;;;6.00;;
64738;SDS011;51175;51.186;0.276;2023-11-21T01:09:24;6.93;;;5.45;;
64738;SDS011;51175;51.186;0.276;2023-11-21T01:09:55;7.80;;;5.18;;
64738;SDS011;51175;51.186;0.276;2023-11-21T01:10:26;11.18;;;6.10;;
64738;SDS011;51175;51.186;0.276;2023-11-21T01:10:56;6.25;;;5.32;;
64738;SDS011;51175;51.186;0.276;2023-11-21T01:11:27;9.07;;;5.45;;
64738;SDS011;51175;51.186;0.276;2023-11-21T01:11:57;9.82;;;5.72;;
64738;SDS011;51175;51.186;0.276;2023-11-21T01:12:29;13.38;;;6.32;;
64738;SDS011;51175;51.186;0.276;2023-11-21T01:13:00;7.90;;;6.07;;
64738;SDS011;51175;51.186;0.276;2023-11-21T01:13:30;10.10;;;6.30;;
64738;SDS011;51175;51.186;0.276;2023-11-21T01:14:01;7.05;;;6.28;;
64738;SDS011;51175;51.186;0.276;2023-11-21T01:14:33;8.02;;;5.35;;
64738;SDS011;51175;51.186;0.276;2023-11-21T01:15:04;10.50;;;6.28;;
64738;SDS011;51175;51.186;0.276;2023-11-21T01:15:38;8.13;;;6.47;;
64738;SDS011;51175;51.186;0.276;2023-11-21T01:16:09;12.93;;;6.25;;
64738;SDS011;51175;51.186;0.276;2023-11-21T01:16:39;9.52;;;6.63;;
64738;SDS011;51175;51.186;0.276;2023-11-21T01:17:10;8.90;;;6.03;;
64738;SDS011;51175;51.186;0.276;2023-11-21T01:17:40;7.47;;;6.30;;
64738;SDS011;51175;51.186;0.276;2023-11-21T01:18:11;9.55;;;7.03;;
64738;SDS011;51175;51.186;0.276;2023-11-21T01:18:41;9.32;;;6.43;;
64738;SDS011;51175;51.186;0.276;2023-11-21T01:19:12;7.35;;;5.90;;
64738;SDS011;51175;51.186;0.276;2023-11-21T01:19:43;11.48;;;7.18;;
64738;SDS011;51175;51.186;0.276;2023-11-21T01:20:13;10.10;;;5.75;;
64738;SDS011;51175;51.186;0.276;2023-11-21T01:20:44;9.93;;;5.70;;
64738;SDS011;51175;51.186;0.276;2023-11-21T01:21:16;8.15;;;6.40;;
64738;SDS011;51175;51.186;0.276;2023-11-21T01:21:47;12.02;;;6.75;;
64738;SDS011;51175;51.186;0.276;2023-11-21T01:22:18;9.65;;;6.80;;
64738;SDS011;51175;51.186;0.276;2023-11-21T01:22:52;13.18;;;7.40;;
64738;SDS011;51175;51.186;0.276;2023-11-21T01:23:24;7.80;;;6.30;;
64738;SDS011;51175;51.186;0.276;2023-11-21T01:23:54;10.23;;;7.07;;
64738;SDS011;51175;51.186;0.276;2023-11-21T01:24:25;7.70;;;6.68;;
64738;SDS011;51175;51.186;0.276;2023-11-21T01:24:56;9.40;;;6.50;;
64738;SDS011;51175;51.186;0.276;2023-11-21T01:25:26;10.40;;;6.38;;
64738;SDS011;51175;51.186;0.276;2023-11-21T01:25:57;8.98;;;6.53;;
64738;SDS011;51175;51.186;0.276;2023-11-21T01:26:27;9.88;;;6.95;;
64738;SDS011;51175;51.186;0.276;2023-11-21T01:26:58;11.52;;;6.60;;
64738;SDS011;51175;51.186;0.276;2023-11-21T01:27:28;10.02;;;6.43;;
64738;SDS011;51175;51.186;0.276;2023-11-21T01:27:59;9.73;;;6.38;;
64738;SDS011;51175;51.186;0.276;2023-11-21T01:28:29;8.90;;;6.90;;
64738;SDS011;51175;51.186;0.276;2023-11-21T01:29:00;9.65;;;7.20;;
64738;SDS011;51175;51.186;0.276;2023-11-21T01:29:30;7.97;;;6.35;;
64738;SDS011;51175;51.186;0.276;2023-11-21T01:30:01;7.68;;;5.93;;
64738;SDS011;51175;51.186;0.276;2023-11-21T01:30:33;9.90;;;6.72;;
64738;SDS011;51175;51.186;0.276;2023-11-21T01:31:04;11.90;;;6.80;;
64738;SDS011;51175;51.186;0.276;2023-11-21T01:31:34;10.93;;;6.25;;
64738;SDS011;51175;51.186;0.276;2023-11-21T01:32:05;10.18;;;5.72;;
64738;SDS011;51175;51.186;0.276;2023-11-21T01:32:38;7.93;;;6.35;;
64738;SDS011;51175;51.186;0.276;2023-11-21T01:33:09;9.85;;;6.35;;
64738;SDS011;51175;51.186;0.276;2023-11-21T01:33:39;8.70;;;7.00;;
64738;SDS011;51175;51.186;0.276;2023-11-21T01:34:10;12.02;;;7.40;;
64738;SDS011;51175;51.186;0.276;2023-11-21T01:34:40;8.57;;;6.38;;
64738;SDS011;51175;51.186;0.276;2023-11-21T01:35:11;9.98;;;7.22;;
64738;SDS011;51175;51.186;0.276;2023-11-21T01:35:42;7.60;;;6.78;;
64738;SDS011;51175;51.186;0.276;2023-11-21T01:36:13;13.63;;;7.40;;
64738;SDS011;51175;51.186;0.276;2023-11-21T01:36:45;9.20;;;7.20;;
64738;SDS011;51175;51.186;0.276;2023-11-21T01:37:16;12.27;;;7.10;;
64738;SDS011;51175;51.186;0.276;2023-11-21T01:37:47;7.47;;;5.68;;
64738;SDS011;51175;51.186;0.276;2023-11-21T01:38:18;9.00;;;6.57;;
64738;SDS011;51175;51.186;0.276;2023-11-21T01:38:49;9.35;;;7.60;;
64738;SDS011;51175;51.186;0.276;2023-11-21T01:39:19;8.65;;;7.75;;
64738;SDS011;51175;51.186;0.276;2023-11-21T01:39:54;11.30;;;6.35;;
64738;SDS011;51175;51.186;0.276;2023-11-21T01:40:27;9.63;;;6.78;;
64738;SDS011;51175;51.186;0.276;2023-11-21T01:40:58;15.00;;;7.45;;
64738;SDS011;51175;51.186;0.276;2023-11-21T01:41:30;12.30;;;7.22;;
64738;SDS011;51175;51.186;0.276;2023-11-21T01:42:01;10.18;;;6.53;;
64738;SDS011;51175;51.186;0.276;2023-11-21T01:42:32;8.52;;;6.68;;
64738;SDS011;51175;51.186;0.276;2023-11-21T01:43:02;10.15;;;7.53;;
64738;SDS011;51175;51.186;0.276;2023-11-21T01:43:33;13.50;;;7.45;;
64738;SDS011;51175;51.186;0.276;2023-11-21T01:44:04;9.20;;;6.40;;
64738;SDS011;51175;51.186;0.276;2023-11-21T01:44:38;10.20;;;6.30;;
64738;SDS011;51175;51.186;0.276;2023-11-21T01:45:09;7.47;;;6.43;;
64738;SDS011;51175;51.186;0.276;2023-11-21T01:45:40;11.63;;;6.80;;
64738;SDS011;51175;51.186;0.276;2023-11-21T01:46:10;8.15;;;7.30;;
64738;SDS011;51175;51.186;0.276;2023-11-21T01:46:41;10.23;;;8.00;;
64738;SDS011;51175;51.186;0.276;2023-11-21T01:47:11;10.98;;;7.10;;
64738;SDS011;51175;51.186;0.276;2023-11-21T01:47:43;9.20;;;8.27;;
64738;SDS011;51175;51.186;0.276;2023-11-21T01:48:14;13.13;;;9.23;;
64738;SDS011;51175;51.186;0.276;2023-11-21T01:48:47;12.88;;;9.55;;
64738;SDS011;51175;51.186;0.276;2023-11-21T01:49:18;12.25;;;7.03;;
64738;SDS011;51175;51.186;0.276;2023-11-21T01:49:50;9.57;;;6.80;;
64738;SDS011;51175;51.186;0.276;2023-11-21T01:50:22;7.38;;;6.18;;
64738;SDS011;51175;51.186;0.276;2023-11-21T01:50:53;8.52;;;7.60;;
64738;SDS011;51175;51.186;0.276;2023-11-21T01:51:23;8.30;;;6.40;;
64738;SDS011;51175;51.186;0.276;2023-11-21T01:51:54;9.75;;;6.80;;
64738;SDS011;51175;51.186;0.276;2023-11-21T01:52:24;9.90;;;7.40;;
64738;SDS011;51175;51.186;0.276;2023-11-21T01:52:55;8.43;;;7.50;;
64738;SDS011;51175;51.186;0.276;2023-11-21T01:53:27;10.77;;;6.90;;
64738;SDS011;51175;51.186;0.276;2023-11-21T01:53:58;8.20;;;6.95;;
64738;SDS011;51175;51.186;0.276;2023-11-21T01:54:29;8.23;;;6.50;;
64738;SDS011;51175;51.186;0.276;2023-11-21T01:55:01;9.93;;;6.82;;
64738;SDS011;51175;51.186;0.276;2023-11-21T01:55:33;8.63;;;7.20;;
64738;SDS011;51175;51.186;0.276;2023-11-21T01:56:04;9.82;;;7.72;;
64738;SDS011;51175;51.186;0.276;2023-11-21T01:56:38;8.25;;;6.82;;
64738;SDS011;51175;51.186;0.276;2023-11-21T01:57:09;11.15;;;7.15;;
64738;SDS011;51175;51.186;0.276;2023-11-21T01:57:40;7.78;;;6.65;;
64738;SDS011;51175;51.186;0.276;2023-11-21T01:58:11;8.68;;;6.78;;
64738;SDS011;51175;51.186;0.276;2023-11-21T01:58:43;10.38;;;8.18;;
64738;SDS011;51175;51.186;0.276;2023-11-21T01:59:20;9.90;;;7.22;;
64738;SDS011;51175;51.186;0.276;2023-11-21T01:59:54;8.48;;;6.78;;
64738;SDS011;51175;51.186;0.276;2023-11-21T02:00:25;13.02;;;6.88;;
64738;SDS011;51175;51.186;0.276;2023-11-21T02:00:58;12.57;;;6.53;;
64738;SDS011;51175;51.186;0.276;2023-11-21T02:01:28;6.47;;;5.32;;
64738;SDS011;51175;51.186;0.276;2023-11-21T02:01:58;7.50;;;6.55;;
64738;SDS011;51175;51.186;0.276;2023-11-21T02:02:29;9.27;;;6.18;;
64738;SDS011;51175;51.186;0.276;2023-11-21T02:03:01;9.18;;;6.38;;
64738;SDS011;51175;51.186;0.276;2023-11-21T02:03:32;7.95;;;6.57;;
64738;SDS011;51175;51.186;0.276;2023-11-21T02:04:03;8.38;;;6.18;;
64738;SDS011;51175;51.186;0.276;2023-11-21T02:04:33;8.93;;;6.47;;
64738;SDS011;51175;51.186;0.276;2023-11-21T02:05:05;6.88;;;5.60;;
64738;SDS011;51175;51.186;0.276;2023-11-21T02:05:38;6.65;;;5.20;;
64738;SDS011;51175;51.186;0.276;2023-11-21T02:06:10;8.20;;;6.30;;
64738;SDS011;51175;51.186;0.276;2023-11-21T02:06:40;7.72;;;6.32;;
64738;SDS011;51175;51.186;0.276;2023-11-21T02:07:11;6.65;;;5.53;;
64738;SDS011;51175;51.186;0.276;2023-11-21T02:07:41;7.07;;;6.30;;
64738;SDS011;51175;51.186;0.276;2023-11-21T02:08:15;8.43;;;6.45;;
64738;SDS011;51175;51.186;0.276;2023-11-21T02:08:46;12.55;;;7.90;;
64738;SDS011;51175;51.186;0.276;2023-11-21T02:09:16;7.68;;;6.68;;
64738;SDS011;51175;51.186;0.276;2023-11-21T02:09:47;7.55;;;5.95;;
64738;SDS011;51175;51.186;0.276;2023-11-21T02:10:18;6.97;;;6.28;;
64738;SDS011;51175;51.186;0.276;2023-11-21T02:10:53;8.25;;;6.18;;
64738;SDS011;51175;51.186;0.276;2023-11-21T02:11:23;7.30;;;6.57;;
64738;SDS011;51175;51.186;0.276;2023-11-21T02:11:54;7.63;;;6.35;;
64738;SDS011;51175;51.186;0.276;2023-11-21T02:12:24;6.78;;;5.50;;
64738;SDS011;51175;51.186;0.276;2023-11-21T02:12:56;7.50;;;5.75;;
64738;SDS011;51175;51.186;0.276;2023-11-21T02:13:28;6.82;;;5.88;;
64738;SDS011;51175;51.186;0.276;2023-11-21T02:13:59;7.30;;;6.60;;
64738;SDS011;51175;51.186;0.276;2023-11-21T02:14:30;13.70;;;7.60;;
64738;SDS011;51175;51.186;0.276;2023-11-21T02:15:05;7.82;;;6.40;;
64738;SDS011;51175;51.186;0.276;2023-11-21T02:15:39;8.27;;;7.38;;
64738;SDS011;51175;51.186;0.276;2023-11-21T02:16:11;8.07;;;6.60;;
64738;SDS011;51175;51.186;0.276;2023-11-21T02:16:42;7.72;;;6.78;;
64738;SDS011;51175;51.186;0.276;2023-11-21T02:17:16;7.53;;;6.45;;
64738;SDS011;51175;51.186;0.276;2023-11-21T02:17:48;7.97;;;7.18;;
64738;SDS011;51175;51.186;0.276;2023-11-21T02:18:21;7.55;;;6.25;;
64738;SDS011;51175;51.186;0.276;2023-11-21T02:18:52;7.65;;;6.50;;
64738;SDS011;51175;51.186;0.276;2023-11-21T02:19:22;7.85;;;7.00;;
64738;SDS011;51175;51.186;0.276;2023-11-21T02:19:55;7.47;;;6.65;;
64738;SDS011;51175;51.186;0.276;2023-11-21T02:20:26;9.02;;;7.00;;
64738;SDS011;51175;51.186;0.276;2023-11-21T02:20:58;7.60;;;6.85;;
64738;SDS011;51175;51.186;0.276;2023-11-21T02:21:29;9.30;;;6.80;;
64738;SDS011;51175;51.186;0.276;2023-11-21T02:22:00;8.45;;;7.10;;
64738;SDS011;51175;51.186;0.276;2023-11-21T02:22:34;8.70;;;6.95;;
64738;SDS011;51175;51.186;0.276;2023-11-21T02:23:08;7.80;;;7.03;;
64738;SDS011;51175;51.186;0.276;2023-11-21T02:23:39;8.75;;;6.25;;
64738;SDS011;51175;51.186;0.276;2023-11-21T02:24:12;7.47;;;6.05;;
64738;SDS011;51175;51.186;0.276;2023-11-21T02:24:43;7.82;;;6.53;;
64738;SDS011;51175;51.186;0.276;2023-11-21T02:25:13;8.07;;;7.28;;
64738;SDS011;51175;51.186;0.276;2023-11-21T02:25:44;7.57;;;6.72;;
64738;SDS011;51175;51.186;0.276;2023-11-21T02:26:14;8.07;;;5.95;;
64738;SDS011;51175;51.186;0.276;2023-11-21T02:26:47;8.63;;;7.72;;
64738;SDS011;51175;51.186;0.276;2023-11-21T02:27:18;9.23;;;6.97;;
64738;SDS011;51175;51.186;0.276;2023-11-21T02:27:51;8.40;;;6.75;;
64738;SDS011;51175;51.186;0.276;2023-11-21T02:28:22;10.98;;;7.68;;
64738;SDS011;51175;51.186;0.276;2023-11-21T02:28:56;8.15;;;7.15;;
64738;SDS011;51175;51.186;0.276;2023-11-21T02:29:28;8.13;;;7.32;;
64738;SDS011;51175;51.186;0.276;2023-11-21T02:29:58;9.50;;;7.30;;
64738;SDS011;51175;51.186;0.276;2023-11-21T02:30:31;7.18;;;6.47;;
64738;SDS011;51175;51.186;0.276;2023-11-21T02:31:05;8.02;;;6.88;;
64738;SDS011;51175;51.186;0.276;2023-11-21T02:31:35;8.65;;;6.68;;
64738;SDS011;51175;51.186;0.276;2023-11-21T02:32:07;9.80;;;6.97;;
64738;SDS011;51175;51.186;0.276;2023-11-21T02:32:40;10.23;;;7.45;;
64738;SDS011;51175;51.186;0.276;2023-11-21T02:33:12;8.32;;;7.03;;
64738;SDS011;51175;51.186;0.276;2023-11-21T02:33:43;8.35;;;7.32;;
64738;SDS011;51175;51.186;0.276;2023-11-21T02:34:14;11.48;;;7.53;;
64738;SDS011;51175;51.186;0.276;2023-11-21T02:34:45;8.25;;;7.00;;
64738;SDS011;51175;51.186;0.276;2023-11-21T02:35:15;8.85;;;6.63;;
64738;SDS011;51175;51.186;0.276;2023-11-21T02:35:46;7.90;;;6.35;;
64738;SDS011;51175;51.186;0.276;2023-11-21T02:36:16;7.38;;;6.05;;
64738;SDS011;51175;51.186;0.276;2023-11-21T02:36:47;8.50;;;6.68;;
64738;SDS011;51175;51.186;0.276;2023-11-21T02:37:21;6.95;;;6.22;;
64738;SDS011;51175;51.186;0.276;2023-11-21T02:37:52;7.18;;;5.85;;
64738;SDS011;51175;51.186;0.276;2023-11-21T02:38:23;7.03;;;6.32;;
64738;SDS011;51175;51.186;0.276;2023-11-21T02:38:53;7.57;;;6.43;;
64738;SDS011;51175;51.186;0.276;2023-11-21T02:39:24;6.80;;;5.22;;
64738;SDS011;51175;51.186;0.276;2023-11-21T02:39:55;6.25;;;5.47;;
64738;SDS011;51175;51.186;0.276;2023-11-21T02:40:26;7.75;;;5.38;;
64738;SDS011;51175;51.186;0.276;2023-11-21T02:40:57;7.90;;;5.35;;
64738;SDS011;51175;51.186;0.276;2023-11-21T02:41:29;6.10;;;5.30;;
64738;SDS011;51175;51.186;0.276;2023-11-21T02:41:59;6.97;;;5.72;;
64738;SDS011;51175;51.186;0.276;2023-11-21T02:42:30;8.63;;;5.65;;
64738;SDS011;51175;51.186;0.276;2023-11-21T02:43:01;6.32;;;5.40;;
64738;SDS011;51175;51.186;0.276;2023-11-21T02:43:31;7.05;;;5.45;;
64738;SDS011;51175;51.186;0.276;2023-11-21T02:44:02;8.30;;;5.55;;
64738;SDS011;51175;51.186;0.276;2023-11-21T02:44:32;6.68;;;5.65;;
64738;SDS011;51175;51.186;0.276;2023-11-21T02:45:03;6.35;;;5.10;;
64738;SDS011;51175;51.186;0.276;2023-11-21T02:45:35;5.10;;;4.60;;
64738;SDS011;51175;51.186;0.276;2023-11-21T02:46:06;6.28;;;4.80;;
64738;SDS011;51175;51.186;0.276;2023-11-21T02:46:38;4.20;;;3.80;;
64738;SDS011;51175;51.186;0.276;2023-11-21T02:47:10;4.70;;;4.15;;
64738;SDS011;51175;51.186;0.276;2023-11-21T02:47:40;5.47;;;4.35;;
64738;SDS011;51175;51.186;0.276;2023-11-21T02:48:11;5.22;;;4.30;;
64738;SDS011;51175;51.186;0.276;2023-11-21T02:48:41;4.18;;;3.78;;
64738;SDS011;51175;51.186;0.276;2023-11-21T02:49:12;3.83;;;3.42;;
64738;SDS011;51175;51.186;0.276;2023-11-21T02:49:42;5.22;;;3.17;;
64738;SDS011;51175;51.186;0.276;2023-11-21T02:50:13;7.50;;;3.30;;
64738;SDS011;51175;51.186;0.276;2023-11-21T02:50:43;5.30;;;3.70;;
64738;SDS011;51175;51.186;0.276;2023-11-21T02:51:14;3.58;;;3.15;;
64738;SDS011;51175;51.186;0.276;2023-11-21T02:51:45;7.75;;;4.35;;
64738;SDS011;51175;51.186;0.276;2023-11-21T02:52:16;4.57;;;3.60;;
64738;SDS011;51175;51.186;0.276;2023-11-21T02:52:46;5.05;;;3.53;;
64738;SDS011;51175;51.186;0.276;2023-11-21T02:53:16;5.22;;;3.80;;
64738;SDS011;51175;51.186;0.276;2023-11-21T02:53:47;5.03;;;3.70;;
64738;SDS011;51175;51.186;0.276;2023-11-21T02:54:18;7.22;;;3.55;;
64738;SDS011;51175;51.186;0.276;2023-11-21T02:54:48;4.18;;;3.50;;
64738;SDS011;51175;51.186;0.276;2023-11-21T02:55:18;7.03;;;3.42;;
64738;SDS011;51175;51.186;0.276;2023-11-21T02:55:50;4.97;;;3.85;;
64738;SDS011;51175;51.186;0.276;2023-11-21T02:56:20;5.68;;;3.85;;
64738;SDS011;51175;51.186;0.276;2023-11-21T02:56:51;3.75;;;3.35;;
64738;SDS011;51175;51.186;0.276;2023-11-21T02:57:21;5.40;;;4.20;;
64738;SDS011;51175;51.186;0.276;2023-11-21T02:57:52;4.70;;;4.30;;
64738;SDS011;51175;51.186;0.276;2023-11-21T02:58:22;4.72;;;4.03;;
64738;SDS011;51175;51.186;0.276;2023-11-21T02:58:55;4.72;;;4.22;;
64738;SDS011;51175;51.186;0.276;2023-11-21T02:59:26;4.75;;;4.25;;
64738;SDS011;51175;51.186;0.276;2023-11-21T02:59:57;6.53;;;4.65;;
64738;SDS011;51175;51.186;0.276;2023-11-21T03:00:27;6.13;;;4.28;;
64738;SDS011;51175;51.186;0.276;2023-11-21T03:00:59;5.20;;;4.70;;
64738;SDS011;51175;51.186;0.276;2023-11-21T03:01:29;4.90;;;4.40;;
64738;SDS011;51175;51.186;0.276;2023-11-21T03:02:00;5.25;;;3.97;;
64738;SDS011;51175;51.186;0.276;2023-11-21T03:02:30;6.35;;;4.53;;
64738;SDS011;51175;51.186;0.276;2023-11-21T03:03:01;7.53;;;5.00;;
64738;SDS011;51175;51.186;0.276;2023-11-21T03:03:31;4.82;;;4.15;;
64738;SDS011;51175;51.186;0.276;2023-11-21T03:04:02;5.63;;;4.57;;
64738;SDS011;51175;51.186;0.276;2023-11-21T03:04:32;6.22;;;4.68;;
64738;SDS011;51175;51.186;0.276;2023-11-21T03:05:04;6.63;;;4.68;;
64738;SDS011;51175;51.186;0.276;2023-11-21T03:05:36;5.07;;;3.75;;
64738;SDS011;51175;51.186;0.276;2023-11-21T03:06:07;5.35;;;3.90;;
64738;SDS011;51175;51.186;0.276;2023-11-21T03:06:38;5.75;;;4.93;;
64738;SDS011;51175;51.186;0.276;2023-11-21T03:07:09;5.05;;;4.43;;